Low Land 20 — WDG8153 — position and weather

sailwx.info

Track history (hours):
 
Tides and Currents Weather Stations Pressure Air Temp Water Temp Dewpoint Dewpoint Depression Visibility Wind Speed Wind Dir Waves Ship Positions

Low Land 20

Owner: LOW LAND CONSTRUCTION CO. INC., THIBODAUX, LA. More information available from US FCC via Universal Licensing System and Coast Guard Vessel Documentation Center.

Last reported at 2018-Feb-17 19:00 UTC. Time now 2018-Feb-17 19:28 UTC.
Position N 29°36' W 090°40'.

; draft 5 m.

Type: Other ship. MMSI: 367574540.

Date/timePositionNaut miles runAvg speedWind from/ knotsBaromVisibWave heightAir tempDewpointWater temp
2018-Feb-17 19:00N 29°36' W 090°40'0 0.0
2018-Feb-17 18:30N 29°36' W 090°40'0 0.0
2018-Feb-17 18:00N 29°36' W 090°40'0 0.0
2018-Feb-17 17:30N 29°36' W 090°40'0 0.0
2018-Feb-17 17:00N 29°36' W 090°40'0 0.0
2018-Feb-17 16:30N 29°36' W 090°40'0 0.0
2018-Feb-17 16:00N 29°36' W 090°40'0 0.4
2018-Feb-17 15:30N 29°36' W 090°40'1 2.5
2018-Feb-17 15:00N 29°36' W 090°41'2 4.4
2018-Feb-17 14:30N 29°35' W 090°43'2 3.0
2018-Feb-17 14:00N 29°34' W 090°44'2 3.4
2018-Feb-17 13:30N 29°33' W 090°46'3 6.1
2018-Feb-17 13:00N 29°32' W 090°49'4 2.2
2018-Feb-17 11:11N 29°33' W 090°53'2 1.0
2018-Feb-17 08:54N 29°34' W 090°56'0 0.0
2018-Feb-17 08:26N 29°34' W 090°56'0 0.0
2018-Feb-17 08:00N 29°34' W 090°56'0 0.0
2018-Feb-17 07:30N 29°34' W 090°56'0 0.0
2018-Feb-17 06:45N 29°34' W 090°56'0 0.1
2018-Feb-17 06:04N 29°34' W 090°56'0 2.7
2018-Feb-17 06:00N 29°34' W 090°56'5 0.2
2018-Feb-15 18:45N 29°32' W 090°50'1 5.4
2018-Feb-15 18:30N 29°32' W 090°49'3 5.2
2018-Feb-15 18:00N 29°32' W 090°46'2 4.8
2018-Feb-15 17:31N 29°34' W 090°44'2 4.8
2018-Feb-15 17:01N 29°36' W 090°43'2 4.6
2018-Feb-15 16:30N 29°36' W 090°40'0 0.3
2018-Feb-15 16:00N 29°36' W 090°40'0 0.3
2018-Feb-15 15:19N 29°36' W 090°40'0 0.6
2018-Feb-15 15:00N 29°36' W 090°40'0 0.0
2018-Feb-15 14:30N 29°36' W 090°40'0 0.0
2018-Feb-15 14:00N 29°36' W 090°40'0 0.0
2018-Feb-15 13:30N 29°36' W 090°40'0 0.0
2018-Feb-15 12:56N 29°36' W 090°40'0 0.0
2018-Feb-15 12:30N 29°36' W 090°40'0 0.0
2018-Feb-15 11:55N 29°36' W 090°40'0 0.0
2018-Feb-15 11:30N 29°36' W 090°40'0 0.0
2018-Feb-15 11:00N 29°36' W 090°40'0 0.0
2018-Feb-15 10:30N 29°36' W 090°40'0 0.0
2018-Feb-15 09:59N 29°36' W 090°40'0 0.0
2018-Feb-15 09:28N 29°36' W 090°40'0 0.0
2018-Feb-15 09:00N 29°36' W 090°40'0 0.0
2018-Feb-15 08:30N 29°36' W 090°40'0 0.0
2018-Feb-15 08:00N 29°36' W 090°40'0 0.0
2018-Feb-15 07:30N 29°36' W 090°40'0 0.0
2018-Feb-15 06:58N 29°36' W 090°40'0 0.0
2018-Feb-15 06:24N 29°36' W 090°40'0 0.0
2018-Feb-15 05:57N 29°36' W 090°40'0 0.0
2018-Feb-15 05:30N 29°36' W 090°40'0 0.0
2018-Feb-15 05:00N 29°36' W 090°40'0 0.0
2018-Feb-15 04:29N 29°36' W 090°40'0 0.0
2018-Feb-15 04:00N 29°36' W 090°40'0 0.0
2018-Feb-15 03:21N 29°36' W 090°40'0 0.0
2018-Feb-15 02:57N 29°36' W 090°40'0 0.0
2018-Feb-15 02:29N 29°36' W 090°40'0 0.0
2018-Feb-15 02:00N 29°36' W 090°40'0 0.0
2018-Feb-15 01:26N 29°36' W 090°40'0 0.0
2018-Feb-15 00:58N 29°36' W 090°40'0 0.0
2018-Feb-15 00:28N 29°36' W 090°40'0 0.0
2018-Feb-15 00:00N 29°36' W 090°40'0 0.0
2018-Feb-14 23:29N 29°36' W 090°40'0 0.0
2018-Feb-14 23:00N 29°36' W 090°40'0 0.0
2018-Feb-14 22:30N 29°36' W 090°40'0 0.0
2018-Feb-14 22:00N 29°36' W 090°40'0 0.0
2018-Feb-14 21:30N 29°36' W 090°40'0 0.0
2018-Feb-14 21:00N 29°36' W 090°40'0 0.0
2018-Feb-14 20:29N 29°36' W 090°40'0 0.0
2018-Feb-14 19:58N 29°36' W 090°40'0 0.0
2018-Feb-14 19:30N 29°36' W 090°40'0 0.0
2018-Feb-14 19:00N 29°36' W 090°40'0 0.0
2018-Feb-14 18:29N 29°36' W 090°40'0 0.0
2018-Feb-14 17:59N 29°36' W 090°40'0 0.0
2018-Feb-14 17:28N 29°36' W 090°40'0 0.0
2018-Feb-14 16:53N 29°36' W 090°40'0 0.0
2018-Feb-14 16:30N 29°36' W 090°40'0 0.0
2018-Feb-14 15:55N 29°36' W 090°40'0 0.0
2018-Feb-14 15:30N 29°36' W 090°40'0 0.0
2018-Feb-14 14:47N 29°36' W 090°40'0 0.0
2018-Feb-14 14:20N 29°36' W 090°40'2 5.6
2018-Feb-14 14:00N 29°35' W 090°38'2 3.7
2018-Feb-14 13:30N 29°36' W 090°40'0 0.0
2018-Feb-14 13:00N 29°36' W 090°40'0 0.0
2018-Feb-14 12:28N 29°36' W 090°40'0 0.0
2018-Feb-14 11:58N 29°36' W 090°40'0 0.0
2018-Feb-14 11:28N 29°36' W 090°40'0 0.0
2018-Feb-14 10:57N 29°36' W 090°40'0 0.0
2018-Feb-14 10:30N 29°36' W 090°40'0 0.0
2018-Feb-14 10:00N 29°36' W 090°40'0 0.0
2018-Feb-14 09:29N 29°36' W 090°40'0 0.0
2018-Feb-14 09:00N 29°36' W 090°40'0 0.0
2018-Feb-14 08:30N 29°36' W 090°40'0 0.0
2018-Feb-14 07:53N 29°36' W 090°40'0 0.0
2018-Feb-14 07:28N 29°36' W 090°40'0 0.0
2018-Feb-14 06:58N 29°36' W 090°40'0 0.0
2018-Feb-14 06:29N 29°36' W 090°40'0 0.0
2018-Feb-14 05:59N 29°36' W 090°40'0 0.0
2018-Feb-14 05:30N 29°36' W 090°40'0 0.0
2018-Feb-14 05:00N 29°36' W 090°40'0 0.0
2018-Feb-14 04:30N 29°36' W 090°40'0 0.0
2018-Feb-14 04:00N 29°36' W 090°40'0 0.0
2018-Feb-14 03:30N 29°36' W 090°40'0 0.0
2018-Feb-14 02:57N 29°36' W 090°40'0 0.0
2018-Feb-14 02:30N 29°36' W 090°40'0 0.0
2018-Feb-14 02:00N 29°36' W 090°40'0 0.0
2018-Feb-14 01:29N 29°36' W 090°40'0 0.0
2018-Feb-14 01:00N 29°36' W 090°40'0 0.0
2018-Feb-14 00:30N 29°36' W 090°40'0 0.0
2018-Feb-13 23:57N 29°36' W 090°40'0 0.0
2018-Feb-13 23:25N 29°36' W 090°40'0 0.0
2018-Feb-13 23:00N 29°36' W 090°40'0 0.0
2018-Feb-13 22:29N 29°36' W 090°40'0 0.0
2018-Feb-13 22:00N 29°36' W 090°40'0 0.0
2018-Feb-13 21:29N 29°36' W 090°40'0 0.0
2018-Feb-13 21:00N 29°36' W 090°40'0 0.0
2018-Feb-13 20:29N 29°36' W 090°40'0 0.0
2018-Feb-13 19:54N 29°36' W 090°40'0 0.0
2018-Feb-13 19:18N 29°36' W 090°40'0 0.0
2018-Feb-13 19:00N 29°36' W 090°40'0 0.0
2018-Feb-13 18:29N 29°36' W 090°40'0 0.0
2018-Feb-13 17:57N 29°36' W 090°40'0 0.0
2018-Feb-13 17:30N 29°36' W 090°40'0 0.0
2018-Feb-13 17:00N 29°36' W 090°40'0 0.1
2018-Feb-13 16:30N 29°36' W 090°40'0 0.1
2018-Feb-13 16:00N 29°36' W 090°40'0 0.5
2018-Feb-13 15:30N 29°36' W 090°39'0 0.0
2018-Feb-13 14:56N 29°36' W 090°39'0 0.0
2018-Feb-13 14:16N 29°36' W 090°39'0 0.0
2018-Feb-13 14:00N 29°36' W 090°39'0 0.6
2018-Feb-13 13:30N 29°36' W 090°40'0 0.1
2018-Feb-13 13:00N 29°36' W 090°40'0 0.0
2018-Feb-13 12:28N 29°36' W 090°40'0 0.0
2018-Feb-13 11:59N 29°36' W 090°40'0 0.0
2018-Feb-13 11:30N 29°36' W 090°40'0 0.0
2018-Feb-13 10:57N 29°36' W 090°40'0 0.0
2018-Feb-13 10:30N 29°36' W 090°40'0 0.0
2018-Feb-13 09:59N 29°36' W 090°40'0 0.0
2018-Feb-13 09:29N 29°36' W 090°40'0 0.0
2018-Feb-13 09:00N 29°36' W 090°40'0 0.0
2018-Feb-13 08:28N 29°36' W 090°40'0 0.0
2018-Feb-13 08:00N 29°36' W 090°40'0 0.0
2018-Feb-13 07:27N 29°36' W 090°40'0 0.0
2018-Feb-13 07:00N 29°36' W 090°40'0 0.0
2018-Feb-13 06:29N 29°36' W 090°40'0 0.0
2018-Feb-13 06:00N 29°36' W 090°40'0 0.0
2018-Feb-13 05:30N 29°36' W 090°40'0 0.0
2018-Feb-13 05:00N 29°36' W 090°40'0 0.0
2018-Feb-13 04:30N 29°36' W 090°40'0 0.0
2018-Feb-13 03:59N 29°36' W 090°40'0 0.0
2018-Feb-13 03:30N 29°36' W 090°40'0 0.0
2018-Feb-13 03:00N 29°36' W 090°40'0 0.0
2018-Feb-13 02:25N 29°36' W 090°40'0 0.0
2018-Feb-13 02:00N 29°36' W 090°40'0 0.0
2018-Feb-13 01:29N 29°36' W 090°40'0 0.0
2018-Feb-13 01:00N 29°36' W 090°40'0 0.0
2018-Feb-13 00:29N 29°36' W 090°40'0 0.0
2018-Feb-13 00:00N 29°36' W 090°40'0 0.0
2018-Feb-12 23:27N 29°36' W 090°40'0 0.0
2018-Feb-12 23:00N 29°36' W 090°40'0 0.0
2018-Feb-12 22:30N 29°36' W 090°40'0 0.0
2018-Feb-12 21:58N 29°36' W 090°40'0 0.0
2018-Feb-12 21:30N 29°36' W 090°40'0 0.0
2018-Feb-12 21:00N 29°36' W 090°40'0 0.0
2018-Feb-12 20:26N 29°36' W 090°40'0 0.0
2018-Feb-12 19:55N 29°36' W 090°40'0 0.0
2018-Feb-12 19:27N 29°36' W 090°40'0 0.0
2018-Feb-12 18:56N 29°36' W 090°40'0 0.0
2018-Feb-12 18:27N 29°36' W 090°40'0 0.0
2018-Feb-12 17:50N 29°36' W 090°40'0 0.0
2018-Feb-12 17:30N 29°36' W 090°40'0 0.0
2018-Feb-12 17:00N 29°36' W 090°40'0 0.0
2018-Feb-12 16:30N 29°36' W 090°40'0 0.0
2018-Feb-12 16:00N 29°36' W 090°40'0 0.0
2018-Feb-12 15:30N 29°36' W 090°40'0 0.0
2018-Feb-12 14:59N 29°36' W 090°40'0 0.0
2018-Feb-12 14:30N 29°36' W 090°40'0 0.0
2018-Feb-12 13:59N 29°36' W 090°40'0 0.0
2018-Feb-12 13:30N 29°36' W 090°40'0 0.0
2018-Feb-12 13:00N 29°36' W 090°40'0 0.0
2018-Feb-12 12:30N 29°36' W 090°40'0 0.0
2018-Feb-12 12:00N 29°36' W 090°40'0 0.0
2018-Feb-12 11:27N 29°36' W 090°40'0 0.0
2018-Feb-12 10:58N 29°36' W 090°40'0 0.0
2018-Feb-12 10:30N 29°36' W 090°40'0 0.0
2018-Feb-12 10:00N 29°36' W 090°40'0 0.0
2018-Feb-12 09:30N 29°36' W 090°40'0 0.0
2018-Feb-12 09:00N 29°36' W 090°40'0 0.0
2018-Feb-12 08:30N 29°36' W 090°40'0 0.0
2018-Feb-12 08:00N 29°36' W 090°40'0 0.0
2018-Feb-12 07:30N 29°36' W 090°40'0 0.0
2018-Feb-12 06:57N 29°36' W 090°40'0 0.0
2018-Feb-12 06:29N 29°36' W 090°40'0 0.0
2018-Feb-12 05:58N 29°36' W 090°40'0 0.0
2018-Feb-12 05:27N 29°36' W 090°40'0 0.0
2018-Feb-12 04:56N 29°36' W 090°40'0 0.0
2018-Feb-12 04:28N 29°36' W 090°40'0 0.0
2018-Feb-12 04:00N 29°36' W 090°40'0 0.0
2018-Feb-12 03:30N 29°36' W 090°40'0 0.0
2018-Feb-12 03:00N 29°36' W 090°40'0 0.0
2018-Feb-12 02:30N 29°36' W 090°40'0 0.0
2018-Feb-12 01:56N 29°36' W 090°40'0 0.0
2018-Feb-12 01:30N 29°36' W 090°40'0 0.0
2018-Feb-12 00:59N 29°36' W 090°40'0 0.0
2018-Feb-12 00:29N 29°36' W 090°40'0 0.0
2018-Feb-12 00:00N 29°36' W 090°40'0 0.0
2018-Feb-11 23:27N 29°36' W 090°40'0 0.0
2018-Feb-11 22:56N 29°36' W 090°40'0 0.0
2018-Feb-11 22:30N 29°36' W 090°40'0 0.0
2018-Feb-11 22:00N 29°36' W 090°40'0 0.0
2018-Feb-11 21:21N 29°36' W 090°40'0 0.0
2018-Feb-11 20:58N 29°36' W 090°40'0 0.0
2018-Feb-11 20:30N 29°36' W 090°40'0 0.0
2018-Feb-11 20:00N 29°36' W 090°40'0 0.0
2018-Feb-11 19:25N 29°36' W 090°40'0 0.0
2018-Feb-11 19:00N 29°36' W 090°40'0 0.0
2018-Feb-11 18:30N 29°36' W 090°40'0 0.0
2018-Feb-11 17:59N 29°36' W 090°40'0 0.0
2018-Feb-11 17:26N 29°36' W 090°40'0 0.0
2018-Feb-11 16:59N 29°36' W 090°40'0 0.0
2018-Feb-11 16:29N 29°36' W 090°40'0 0.0
2018-Feb-11 16:00N 29°36' W 090°40'0 0.0
2018-Feb-11 15:30N 29°36' W 090°40'0 0.0
2018-Feb-11 15:00N 29°36' W 090°40'0 0.0
2018-Feb-11 14:29N 29°36' W 090°40'0 0.0
2018-Feb-11 14:01N 29°36' W 090°40'0 0.0
2018-Feb-11 13:30N 29°36' W 090°40'0 0.0
2018-Feb-11 12:59N 29°36' W 090°40'0 0.0
2018-Feb-11 12:28N 29°36' W 090°40'0 0.0
2018-Feb-11 12:00N 29°36' W 090°40'0 0.0
2018-Feb-11 11:27N 29°36' W 090°40'0 0.0
2018-Feb-11 11:00N 29°36' W 090°40'0 0.0
2018-Feb-11 10:28N 29°36' W 090°40'0 0.0
2018-Feb-11 09:58N 29°36' W 090°40'0 0.0
2018-Feb-11 09:29N 29°36' W 090°40'0 0.0
2018-Feb-11 08:58N 29°36' W 090°40'0 0.0
2018-Feb-11 08:30N 29°36' W 090°40'0 0.0
2018-Feb-11 07:59N 29°36' W 090°40'0 0.0
2018-Feb-11 07:28N 29°36' W 090°40'0 0.0
2018-Feb-11 07:00N 29°36' W 090°40'0 0.0
2018-Feb-11 06:29N 29°36' W 090°40'0 0.0
2018-Feb-11 06:00N 29°36' W 090°40'0 0.0
2018-Feb-11 05:28N 29°36' W 090°40'0 0.0
2018-Feb-11 05:00N 29°36' W 090°40'0 0.0
2018-Feb-11 04:30N 29°36' W 090°40'0 0.0
2018-Feb-11 04:00N 29°36' W 090°40'0 0.0
2018-Feb-11 03:29N 29°36' W 090°40'0 0.0
2018-Feb-11 03:00N 29°36' W 090°40'0 0.0
2018-Feb-11 02:30N 29°36' W 090°40'0 0.0
2018-Feb-11 02:00N 29°36' W 090°40'0 0.0
2018-Feb-11 01:29N 29°36' W 090°40'0 0.0
2018-Feb-11 01:00N 29°36' W 090°40'0 0.0
2018-Feb-11 00:30N 29°36' W 090°40'0 0.0
2018-Feb-11 00:00N 29°36' W 090°40'0 0.0
2018-Feb-10 23:30N 29°36' W 090°40'0 0.0
2018-Feb-10 23:00N 29°36' W 090°40'0 0.0
2018-Feb-10 22:23N 29°36' W 090°40'0 0.0
2018-Feb-10 22:01N 29°36' W 090°40'0 0.0
2018-Feb-10 21:30N 29°36' W 090°40'0 0.0
2018-Feb-10 21:00N 29°36' W 090°40'0 0.0
2018-Feb-10 20:30N 29°36' W 090°40'0 0.0
2018-Feb-10 19:59N 29°36' W 090°40'0 0.0
2018-Feb-10 19:30N 29°36' W 090°40'0 0.0
2018-Feb-10 19:00N 29°36' W 090°40'0 0.0
2018-Feb-10 18:30N 29°36' W 090°40'0 0.0
2018-Feb-10 17:59N 29°36' W 090°40'0 0.0
2018-Feb-10 17:29N 29°36' W 090°40'0 0.0
2018-Feb-10 17:00N 29°36' W 090°40'0 0.0
2018-Feb-10 16:30N 29°36' W 090°40'0 0.0
2018-Feb-10 16:00N 29°36' W 090°40'0 0.0
2018-Feb-10 15:28N 29°36' W 090°40'0 0.0
2018-Feb-10 14:59N 29°36' W 090°40'0 0.0
2018-Feb-10 14:29N 29°36' W 090°40'0 0.0
2018-Feb-10 14:00N 29°36' W 090°40'0 0.0
2018-Feb-10 13:27N 29°36' W 090°40'0 0.0
2018-Feb-10 12:58N 29°36' W 090°40'0 0.0
2018-Feb-10 12:30N 29°36' W 090°40'0 0.0
2018-Feb-10 12:00N 29°36' W 090°40'0 0.0
2018-Feb-10 11:30N 29°36' W 090°40'0 0.0
2018-Feb-10 11:00N 29°36' W 090°40'0 0.0
2018-Feb-10 10:30N 29°36' W 090°40'0 0.0
2018-Feb-10 09:58N 29°36' W 090°40'0 0.0
2018-Feb-10 09:27N 29°36' W 090°40'0 0.0
2018-Feb-10 09:00N 29°36' W 090°40'0 0.0
2018-Feb-10 08:29N 29°36' W 090°40'0 0.0
2018-Feb-10 08:00N 29°36' W 090°40'0 0.0
2018-Feb-10 07:30N 29°36' W 090°40'0 0.0
2018-Feb-10 07:00N 29°36' W 090°40'0 0.0
2018-Feb-10 06:30N 29°36' W 090°40'0 0.0
2018-Feb-10 06:00N 29°36' W 090°40'0 0.0
2018-Feb-10 05:28N 29°36' W 090°40'0 0.0
2018-Feb-10 05:00N 29°36' W 090°40'0 0.0
2018-Feb-10 04:29N 29°36' W 090°40'0 0.0
2018-Feb-10 03:59N 29°36' W 090°40'0 0.0
2018-Feb-10 03:29N 29°36' W 090°40'0 0.0
2018-Feb-10 03:00N 29°36' W 090°40'0 0.0
2018-Feb-10 02:30N 29°36' W 090°40'0 0.0
2018-Feb-10 01:58N 29°36' W 090°40'0 0.0
2018-Feb-10 01:28N 29°36' W 090°40'0 0.0
2018-Feb-10 00:59N 29°36' W 090°40'0 0.0
2018-Feb-10 00:30N 29°36' W 090°40'0 0.0
2018-Feb-09 23:59N 29°36' W 090°40'0 0.0
2018-Feb-09 23:30N 29°36' W 090°40'0 0.0
2018-Feb-09 23:00N 29°36' W 090°40'0 0.0
2018-Feb-09 22:46N 29°36' W 090°40'0 0.0
2018-Feb-09 21:00N 29°36' W 090°40'0 0.0
2018-Feb-09 20:30N 29°36' W 090°40'0 0.0
2018-Feb-09 17:30N 29°36' W 090°40'0 0.0
2018-Feb-09 12:30N 29°36' W 090°40'0 0.0
2018-Feb-09 12:00N 29°36' W 090°40'0 0.0
2018-Feb-09 11:30N 29°36' W 090°40'0 0.0
2018-Feb-09 10:30N 29°36' W 090°40'0 0.0
2018-Feb-09 10:01N 29°36' W 090°40'0 0.0
2018-Feb-09 09:30N 29°36' W 090°40'0 0.0
2018-Feb-09 07:30N 29°36' W 090°40'0 0.0
2018-Feb-09 07:00N 29°36' W 090°40'0 0.0
2018-Feb-09 06:30N 29°36' W 090°40'0 0.0
2018-Feb-09 01:00N 29°36' W 090°40'0 0.0
2018-Feb-09 00:30N 29°36' W 090°40'0 0.0
2018-Feb-08 06:00N 29°36' W 090°40'  
Track history (hours):
 
Tides and Currents Weather Stations Pressure Air Temp Water Temp Dewpoint Dewpoint Depression Visibility Wind Speed Wind Dir Waves Ship Positions

Low Land 20

Owner: LOW LAND CONSTRUCTION CO. INC., THIBODAUX, LA. More information available from US FCC via Universal Licensing System and Coast Guard Vessel Documentation Center.

Last reported at 2018-Feb-17 19:00 UTC. Time now 2018-Feb-17 19:28 UTC.
Position N 29°36' W 090°40'.

; draft 5 m.

Type: Other ship. MMSI: 367574540.

Date/timePositionNaut miles runAvg speedWind from/ knotsBaromVisibWave heightAir tempDewpointWater temp
2018-Feb-17 19:00N 29°36' W 090°40'0 0.0
2018-Feb-17 18:30N 29°36' W 090°40'0 0.0
2018-Feb-17 18:00N 29°36' W 090°40'0 0.0
2018-Feb-17 17:30N 29°36' W 090°40'0 0.0
2018-Feb-17 17:00N 29°36' W 090°40'0 0.0
2018-Feb-17 16:30N 29°36' W 090°40'0 0.0
2018-Feb-17 16:00N 29°36' W 090°40'0 0.4
2018-Feb-17 15:30N 29°36' W 090°40'1 2.5
2018-Feb-17 15:00N 29°36' W 090°41'2 4.4
2018-Feb-17 14:30N 29°35' W 090°43'2 3.0
2018-Feb-17 14:00N 29°34' W 090°44'2 3.4
2018-Feb-17 13:30N 29°33' W 090°46'3 6.1
2018-Feb-17 13:00N 29°32' W 090°49'4 2.2
2018-Feb-17 11:11N 29°33' W 090°53'2 1.0
2018-Feb-17 08:54N 29°34' W 090°56'0 0.0
2018-Feb-17 08:26N 29°34' W 090°56'0 0.0
2018-Feb-17 08:00N 29°34' W 090°56'0 0.0
2018-Feb-17 07:30N 29°34' W 090°56'0 0.0
2018-Feb-17 06:45N 29°34' W 090°56'0 0.1
2018-Feb-17 06:04N 29°34' W 090°56'0 2.7
2018-Feb-17 06:00N 29°34' W 090°56'5 0.2
2018-Feb-15 18:45N 29°32' W 090°50'1 5.4
2018-Feb-15 18:30N 29°32' W 090°49'3 5.2
2018-Feb-15 18:00N 29°32' W 090°46'2 4.8
2018-Feb-15 17:31N 29°34' W 090°44'2 4.8
2018-Feb-15 17:01N 29°36' W 090°43'2 4.6
2018-Feb-15 16:30N 29°36' W 090°40'0 0.3
2018-Feb-15 16:00N 29°36' W 090°40'0 0.3
2018-Feb-15 15:19N 29°36' W 090°40'0 0.6
2018-Feb-15 15:00N 29°36' W 090°40'0 0.0
2018-Feb-15 14:30N 29°36' W 090°40'0 0.0
2018-Feb-15 14:00N 29°36' W 090°40'0 0.0
2018-Feb-15 13:30N 29°36' W 090°40'0 0.0
2018-Feb-15 12:56N 29°36' W 090°40'0 0.0
2018-Feb-15 12:30N 29°36' W 090°40'0 0.0
2018-Feb-15 11:55N 29°36' W 090°40'0 0.0
2018-Feb-15 11:30N 29°36' W 090°40'0 0.0
2018-Feb-15 11:00N 29°36' W 090°40'0 0.0
2018-Feb-15 10:30N 29°36' W 090°40'0 0.0
2018-Feb-15 09:59N 29°36' W 090°40'0 0.0
2018-Feb-15 09:28N 29°36' W 090°40'0 0.0
2018-Feb-15 09:00N 29°36' W 090°40'0 0.0
2018-Feb-15 08:30N 29°36' W 090°40'0 0.0
2018-Feb-15 08:00N 29°36' W 090°40'0 0.0
2018-Feb-15 07:30N 29°36' W 090°40'0 0.0
2018-Feb-15 06:58N 29°36' W 090°40'0 0.0
2018-Feb-15 06:24N 29°36' W 090°40'0 0.0
2018-Feb-15 05:57N 29°36' W 090°40'0 0.0
2018-Feb-15 05:30N 29°36' W 090°40'0 0.0
2018-Feb-15 05:00N 29°36' W 090°40'0 0.0
2018-Feb-15 04:29N 29°36' W 090°40'0 0.0
2018-Feb-15 04:00N 29°36' W 090°40'0 0.0
2018-Feb-15 03:21N 29°36' W 090°40'0 0.0
2018-Feb-15 02:57N 29°36' W 090°40'0 0.0
2018-Feb-15 02:29N 29°36' W 090°40'0 0.0
2018-Feb-15 02:00N 29°36' W 090°40'0 0.0
2018-Feb-15 01:26N 29°36' W 090°40'0 0.0
2018-Feb-15 00:58N 29°36' W 090°40'0 0.0
2018-Feb-15 00:28N 29°36' W 090°40'0 0.0
2018-Feb-15 00:00N 29°36' W 090°40'0 0.0
2018-Feb-14 23:29N 29°36' W 090°40'0 0.0
2018-Feb-14 23:00N 29°36' W 090°40'0 0.0
2018-Feb-14 22:30N 29°36' W 090°40'0 0.0
2018-Feb-14 22:00N 29°36' W 090°40'0 0.0
2018-Feb-14 21:30N 29°36' W 090°40'0 0.0
2018-Feb-14 21:00N 29°36' W 090°40'0 0.0
2018-Feb-14 20:29N 29°36' W 090°40'0 0.0
2018-Feb-14 19:58N 29°36' W 090°40'0 0.0
2018-Feb-14 19:30N 29°36' W 090°40'0 0.0
2018-Feb-14 19:00N 29°36' W 090°40'0 0.0
2018-Feb-14 18:29N 29°36' W 090°40'0 0.0
2018-Feb-14 17:59N 29°36' W 090°40'0 0.0
2018-Feb-14 17:28N 29°36' W 090°40'0 0.0
2018-Feb-14 16:53N 29°36' W 090°40'0 0.0
2018-Feb-14 16:30N 29°36' W 090°40'0 0.0
2018-Feb-14 15:55N 29°36' W 090°40'0 0.0
2018-Feb-14 15:30N 29°36' W 090°40'0 0.0
2018-Feb-14 14:47N 29°36' W 090°40'0 0.0
2018-Feb-14 14:20N 29°36' W 090°40'2 5.6
2018-Feb-14 14:00N 29°35' W 090°38'2 3.7
2018-Feb-14 13:30N 29°36' W 090°40'0 0.0
2018-Feb-14 13:00N 29°36' W 090°40'0 0.0
2018-Feb-14 12:28N 29°36' W 090°40'0 0.0
2018-Feb-14 11:58N 29°36' W 090°40'0 0.0
2018-Feb-14 11:28N 29°36' W 090°40'0 0.0
2018-Feb-14 10:57N 29°36' W 090°40'0 0.0
2018-Feb-14 10:30N 29°36' W 090°40'0 0.0
2018-Feb-14 10:00N 29°36' W 090°40'0 0.0
2018-Feb-14 09:29N 29°36' W 090°40'0 0.0
2018-Feb-14 09:00N 29°36' W 090°40'0 0.0
2018-Feb-14 08:30N 29°36' W 090°40'0 0.0
2018-Feb-14 07:53N 29°36' W 090°40'0 0.0
2018-Feb-14 07:28N 29°36' W 090°40'0 0.0
2018-Feb-14 06:58N 29°36' W 090°40'0 0.0
2018-Feb-14 06:29N 29°36' W 090°40'0 0.0
2018-Feb-14 05:59N 29°36' W 090°40'0 0.0
2018-Feb-14 05:30N 29°36' W 090°40'0 0.0
2018-Feb-14 05:00N 29°36' W 090°40'0 0.0
2018-Feb-14 04:30N 29°36' W 090°40'0 0.0
2018-Feb-14 04:00N 29°36' W 090°40'0 0.0
2018-Feb-14 03:30N 29°36' W 090°40'0 0.0
2018-Feb-14 02:57N 29°36' W 090°40'0 0.0
2018-Feb-14 02:30N 29°36' W 090°40'0 0.0
2018-Feb-14 02:00N 29°36' W 090°40'0 0.0
2018-Feb-14 01:29N 29°36' W 090°40'0 0.0
2018-Feb-14 01:00N 29°36' W 090°40'0 0.0
2018-Feb-14 00:30N 29°36' W 090°40'0 0.0
2018-Feb-13 23:57N 29°36' W 090°40'0 0.0
2018-Feb-13 23:25N 29°36' W 090°40'0 0.0
2018-Feb-13 23:00N 29°36' W 090°40'0 0.0
2018-Feb-13 22:29N 29°36' W 090°40'0 0.0
2018-Feb-13 22:00N 29°36' W 090°40'0 0.0
2018-Feb-13 21:29N 29°36' W 090°40'0 0.0
2018-Feb-13 21:00N 29°36' W 090°40'0 0.0
2018-Feb-13 20:29N 29°36' W 090°40'0 0.0
2018-Feb-13 19:54N 29°36' W 090°40'0 0.0
2018-Feb-13 19:18N 29°36' W 090°40'0 0.0
2018-Feb-13 19:00N 29°36' W 090°40'0 0.0
2018-Feb-13 18:29N 29°36' W 090°40'0 0.0
2018-Feb-13 17:57N 29°36' W 090°40'0 0.0
2018-Feb-13 17:30N 29°36' W 090°40'0 0.0
2018-Feb-13 17:00N 29°36' W 090°40'0 0.1
2018-Feb-13 16:30N 29°36' W 090°40'0 0.1
2018-Feb-13 16:00N 29°36' W 090°40'0 0.5
2018-Feb-13 15:30N 29°36' W 090°39'0 0.0
2018-Feb-13 14:56N 29°36' W 090°39'0 0.0
2018-Feb-13 14:16N 29°36' W 090°39'0 0.0
2018-Feb-13 14:00N 29°36' W 090°39'0 0.6
2018-Feb-13 13:30N 29°36' W 090°40'0 0.1
2018-Feb-13 13:00N 29°36' W 090°40'0 0.0
2018-Feb-13 12:28N 29°36' W 090°40'0 0.0
2018-Feb-13 11:59N 29°36' W 090°40'0 0.0
2018-Feb-13 11:30N 29°36' W 090°40'0 0.0
2018-Feb-13 10:57N 29°36' W 090°40'0 0.0
2018-Feb-13 10:30N 29°36' W 090°40'0 0.0
2018-Feb-13 09:59N 29°36' W 090°40'0 0.0
2018-Feb-13 09:29N 29°36' W 090°40'0 0.0
2018-Feb-13 09:00N 29°36' W 090°40'0 0.0
2018-Feb-13 08:28N 29°36' W 090°40'0 0.0
2018-Feb-13 08:00N 29°36' W 090°40'0 0.0
2018-Feb-13 07:27N 29°36' W 090°40'0 0.0
2018-Feb-13 07:00N 29°36' W 090°40'0 0.0
2018-Feb-13 06:29N 29°36' W 090°40'0 0.0
2018-Feb-13 06:00N 29°36' W 090°40'0 0.0
2018-Feb-13 05:30N 29°36' W 090°40'0 0.0
2018-Feb-13 05:00N 29°36' W 090°40'0 0.0
2018-Feb-13 04:30N 29°36' W 090°40'0 0.0
2018-Feb-13 03:59N 29°36' W 090°40'0 0.0
2018-Feb-13 03:30N 29°36' W 090°40'0 0.0
2018-Feb-13 03:00N 29°36' W 090°40'0 0.0
2018-Feb-13 02:25N 29°36' W 090°40'0 0.0
2018-Feb-13 02:00N 29°36' W 090°40'0 0.0
2018-Feb-13 01:29N 29°36' W 090°40'0 0.0
2018-Feb-13 01:00N 29°36' W 090°40'0 0.0
2018-Feb-13 00:29N 29°36' W 090°40'0 0.0
2018-Feb-13 00:00N 29°36' W 090°40'0 0.0
2018-Feb-12 23:27N 29°36' W 090°40'0 0.0
2018-Feb-12 23:00N 29°36' W 090°40'0 0.0
2018-Feb-12 22:30N 29°36' W 090°40'0 0.0
2018-Feb-12 21:58N 29°36' W 090°40'0 0.0
2018-Feb-12 21:30N 29°36' W 090°40'0 0.0
2018-Feb-12 21:00N 29°36' W 090°40'0 0.0
2018-Feb-12 20:26N 29°36' W 090°40'0 0.0
2018-Feb-12 19:55N 29°36' W 090°40'0 0.0
2018-Feb-12 19:27N 29°36' W 090°40'0 0.0
2018-Feb-12 18:56N 29°36' W 090°40'0 0.0
2018-Feb-12 18:27N 29°36' W 090°40'0 0.0
2018-Feb-12 17:50N 29°36' W 090°40'0 0.0
2018-Feb-12 17:30N 29°36' W 090°40'0 0.0
2018-Feb-12 17:00N 29°36' W 090°40'0 0.0
2018-Feb-12 16:30N 29°36' W 090°40'0 0.0
2018-Feb-12 16:00N 29°36' W 090°40'0 0.0
2018-Feb-12 15:30N 29°36' W 090°40'0 0.0
2018-Feb-12 14:59N 29°36' W 090°40'0 0.0
2018-Feb-12 14:30N 29°36' W 090°40'0 0.0
2018-Feb-12 13:59N 29°36' W 090°40'0 0.0
2018-Feb-12 13:30N 29°36' W 090°40'0 0.0
2018-Feb-12 13:00N 29°36' W 090°40'0 0.0
2018-Feb-12 12:30N 29°36' W 090°40'0 0.0
2018-Feb-12 12:00N 29°36' W 090°40'0 0.0
2018-Feb-12 11:27N 29°36' W 090°40'0 0.0
2018-Feb-12 10:58N 29°36' W 090°40'0 0.0
2018-Feb-12 10:30N 29°36' W 090°40'0 0.0
2018-Feb-12 10:00N 29°36' W 090°40'0 0.0
2018-Feb-12 09:30N 29°36' W 090°40'0 0.0
2018-Feb-12 09:00N 29°36' W 090°40'0 0.0
2018-Feb-12 08:30N 29°36' W 090°40'0 0.0
2018-Feb-12 08:00N 29°36' W 090°40'0 0.0
2018-Feb-12 07:30N 29°36' W 090°40'0 0.0
2018-Feb-12 06:57N 29°36' W 090°40'0 0.0
2018-Feb-12 06:29N 29°36' W 090°40'0 0.0
2018-Feb-12 05:58N 29°36' W 090°40'0 0.0
2018-Feb-12 05:27N 29°36' W 090°40'0 0.0
2018-Feb-12 04:56N 29°36' W 090°40'0 0.0
2018-Feb-12 04:28N 29°36' W 090°40'0 0.0
2018-Feb-12 04:00N 29°36' W 090°40'0 0.0
2018-Feb-12 03:30N 29°36' W 090°40'0 0.0
2018-Feb-12 03:00N 29°36' W 090°40'0 0.0
2018-Feb-12 02:30N 29°36' W 090°40'0 0.0
2018-Feb-12 01:56N 29°36' W 090°40'0 0.0
2018-Feb-12 01:30N 29°36' W 090°40'0 0.0
2018-Feb-12 00:59N 29°36' W 090°40'0 0.0
2018-Feb-12 00:29N 29°36' W 090°40'0 0.0
2018-Feb-12 00:00N 29°36' W 090°40'0 0.0
2018-Feb-11 23:27N 29°36' W 090°40'0 0.0
2018-Feb-11 22:56N 29°36' W 090°40'0 0.0
2018-Feb-11 22:30N 29°36' W 090°40'0 0.0
2018-Feb-11 22:00N 29°36' W 090°40'0 0.0
2018-Feb-11 21:21N 29°36' W 090°40'0 0.0
2018-Feb-11 20:58N 29°36' W 090°40'0 0.0
2018-Feb-11 20:30N 29°36' W 090°40'0 0.0
2018-Feb-11 20:00N 29°36' W 090°40'0 0.0
2018-Feb-11 19:25N 29°36' W 090°40'0 0.0
2018-Feb-11 19:00N 29°36' W 090°40'0 0.0
2018-Feb-11 18:30N 29°36' W 090°40'0 0.0
2018-Feb-11 17:59N 29°36' W 090°40'0 0.0
2018-Feb-11 17:26N 29°36' W 090°40'0 0.0
2018-Feb-11 16:59N 29°36' W 090°40'0 0.0
2018-Feb-11 16:29N 29°36' W 090°40'0 0.0
2018-Feb-11 16:00N 29°36' W 090°40'0 0.0
2018-Feb-11 15:30N 29°36' W 090°40'0 0.0
2018-Feb-11 15:00N 29°36' W 090°40'0 0.0
2018-Feb-11 14:29N 29°36' W 090°40'0 0.0
2018-Feb-11 14:01N 29°36' W 090°40'0 0.0
2018-Feb-11 13:30N 29°36' W 090°40'0 0.0
2018-Feb-11 12:59N 29°36' W 090°40'0 0.0
2018-Feb-11 12:28N 29°36' W 090°40'0 0.0
2018-Feb-11 12:00N 29°36' W 090°40'0 0.0
2018-Feb-11 11:27N 29°36' W 090°40'0 0.0
2018-Feb-11 11:00N 29°36' W 090°40'0 0.0
2018-Feb-11 10:28N 29°36' W 090°40'0 0.0
2018-Feb-11 09:58N 29°36' W 090°40'0 0.0
2018-Feb-11 09:29N 29°36' W 090°40'0 0.0
2018-Feb-11 08:58N 29°36' W 090°40'0 0.0
2018-Feb-11 08:30N 29°36' W 090°40'0 0.0
2018-Feb-11 07:59N 29°36' W 090°40'0 0.0
2018-Feb-11 07:28N 29°36' W 090°40'0 0.0
2018-Feb-11 07:00N 29°36' W 090°40'0 0.0
2018-Feb-11 06:29N 29°36' W 090°40'0 0.0
2018-Feb-11 06:00N 29°36' W 090°40'0 0.0
2018-Feb-11 05:28N 29°36' W 090°40'0 0.0
2018-Feb-11 05:00N 29°36' W 090°40'0 0.0
2018-Feb-11 04:30N 29°36' W 090°40'0 0.0
2018-Feb-11 04:00N 29°36' W 090°40'0 0.0
2018-Feb-11 03:29N 29°36' W 090°40'0 0.0
2018-Feb-11 03:00N 29°36' W 090°40'0 0.0
2018-Feb-11 02:30N 29°36' W 090°40'0 0.0
2018-Feb-11 02:00N 29°36' W 090°40'0 0.0
2018-Feb-11 01:29N 29°36' W 090°40'0 0.0
2018-Feb-11 01:00N 29°36' W 090°40'0 0.0
2018-Feb-11 00:30N 29°36' W 090°40'0 0.0
2018-Feb-11 00:00N 29°36' W 090°40'0 0.0
2018-Feb-10 23:30N 29°36' W 090°40'0 0.0
2018-Feb-10 23:00N 29°36' W 090°40'0 0.0
2018-Feb-10 22:23N 29°36' W 090°40'0 0.0
2018-Feb-10 22:01N 29°36' W 090°40'0 0.0
2018-Feb-10 21:30N 29°36' W 090°40'0 0.0
2018-Feb-10 21:00N 29°36' W 090°40'0 0.0
2018-Feb-10 20:30N 29°36' W 090°40'0 0.0
2018-Feb-10 19:59N 29°36' W 090°40'0 0.0
2018-Feb-10 19:30N 29°36' W 090°40'0 0.0
2018-Feb-10 19:00N 29°36' W 090°40'0 0.0
2018-Feb-10 18:30N 29°36' W 090°40'0 0.0
2018-Feb-10 17:59N 29°36' W 090°40'0 0.0
2018-Feb-10 17:29N 29°36' W 090°40'0 0.0
2018-Feb-10 17:00N 29°36' W 090°40'0 0.0
2018-Feb-10 16:30N 29°36' W 090°40'0 0.0
2018-Feb-10 16:00N 29°36' W 090°40'0 0.0
2018-Feb-10 15:28N 29°36' W 090°40'0 0.0
2018-Feb-10 14:59N 29°36' W 090°40'0 0.0
2018-Feb-10 14:29N 29°36' W 090°40'0 0.0
2018-Feb-10 14:00N 29°36' W 090°40'0 0.0
2018-Feb-10 13:27N 29°36' W 090°40'0 0.0
2018-Feb-10 12:58N 29°36' W 090°40'0 0.0
2018-Feb-10 12:30N 29°36' W 090°40'0 0.0
2018-Feb-10 12:00N 29°36' W 090°40'0 0.0
2018-Feb-10 11:30N 29°36' W 090°40'0 0.0
2018-Feb-10 11:00N 29°36' W 090°40'0 0.0
2018-Feb-10 10:30N 29°36' W 090°40'0 0.0
2018-Feb-10 09:58N 29°36' W 090°40'0 0.0
2018-Feb-10 09:27N 29°36' W 090°40'0 0.0
2018-Feb-10 09:00N 29°36' W 090°40'0 0.0
2018-Feb-10 08:29N 29°36' W 090°40'0 0.0
2018-Feb-10 08:00N 29°36' W 090°40'0 0.0
2018-Feb-10 07:30N 29°36' W 090°40'0 0.0
2018-Feb-10 07:00N 29°36' W 090°40'0 0.0
2018-Feb-10 06:30N 29°36' W 090°40'0 0.0
2018-Feb-10 06:00N 29°36' W 090°40'0 0.0
2018-Feb-10 05:28N 29°36' W 090°40'0 0.0
2018-Feb-10 05:00N 29°36' W 090°40'0 0.0
2018-Feb-10 04:29N 29°36' W 090°40'0 0.0
2018-Feb-10 03:59N 29°36' W 090°40'0 0.0
2018-Feb-10 03:29N 29°36' W 090°40'0 0.0
2018-Feb-10 03:00N 29°36' W 090°40'0 0.0
2018-Feb-10 02:30N 29°36' W 090°40'0 0.0
2018-Feb-10 01:58N 29°36' W 090°40'0 0.0
2018-Feb-10 01:28N 29°36' W 090°40'0 0.0
2018-Feb-10 00:59N 29°36' W 090°40'0 0.0
2018-Feb-10 00:30N 29°36' W 090°40'0 0.0
2018-Feb-09 23:59N 29°36' W 090°40'0 0.0
2018-Feb-09 23:30N 29°36' W 090°40'0 0.0
2018-Feb-09 23:00N 29°36' W 090°40'0 0.0
2018-Feb-09 22:46N 29°36' W 090°40'0 0.0
2018-Feb-09 21:00N 29°36' W 090°40'0 0.0
2018-Feb-09 20:30N 29°36' W 090°40'0 0.0
2018-Feb-09 17:30N 29°36' W 090°40'0 0.0
2018-Feb-09 12:30N 29°36' W 090°40'0 0.0
2018-Feb-09 12:00N 29°36' W 090°40'0 0.0
2018-Feb-09 11:30N 29°36' W 090°40'0 0.0
2018-Feb-09 10:30N 29°36' W 090°40'0 0.0
2018-Feb-09 10:01N 29°36' W 090°40'0 0.0
2018-Feb-09 09:30N 29°36' W 090°40'0 0.0
2018-Feb-09 07:30N 29°36' W 090°40'0 0.0
2018-Feb-09 07:00N 29°36' W 090°40'0 0.0
2018-Feb-09 06:30N 29°36' W 090°40'0 0.0
2018-Feb-09 01:00N 29°36' W 090°40'0 0.0
2018-Feb-09 00:30N 29°36' W 090°40'0 0.0
2018-Feb-08 06:00N 29°36' W 090°40'  

Dump ship's entire track history